Terminal Aerodrome Forecast
Issued by NWS

Home | Current Version | Previous Version | Text Only | Print | Product List | Glossary On
Versions: 1 2 3 4 5 6 7 8 9 10 11 12 13 14 15 16 17 18 19 20 21 22 23 24 25 26 27 28 29 30 31 32 33 34 35 36 37 38 39 40 41 42 43
000
FTUS43 KPAH 051004 AAC
TAFOWB
TAF AMD
KOWB 051004Z 0510/0606 36005KT 3SM -SN BR SCT001 OVC012
     FM051100 36007KT P6SM -SN OVC035
     FM051200 36010KT P6SM BKN150
     FM051600 35010KT P6SM SCT020
     FM060000 36004KT P6SM SKC=

USA.gov is the U.S. government's official web portal to all federal, state and local government web resources and services.